AAL565 KSFO-KPHL
Flight info
| Callsign | AAL565 |
|---|---|
| Flight time | 4h 45m |
| Altitude | 35000 |
| Route | NIITE4 SYRAH Q128 JSICA ILC BERYL IBSKI LAZON DAAYE ZAROS KK48A KIRKE FOWNE BUM Q176 STL SHB CREEP EMPTY BUBAA JST BOJID4 |
| Aircraft | A21N/M-SDE2E3FGHIJ1RWXY/LB1 |
Departure
| Time | 2026-05-04 14:01 |
|---|---|
| Airport | San Francisco International Airport (KSFO) |
Arrival
| Time | 2026-05-04 18:46 |
|---|---|
| Airport | Philadelphia International Airport (KPHL) |
| Time | Latitude | Longitude | Altitude | Speed | Heading |
|---|---|---|---|---|---|
| 2026-05-04 13:35 | 37.60998 | -122.38629 | 24 ft | 0 kts | 12° |
| 2026-05-04 13:49 | 37.60996 | -122.38630 | 24 ft | 3 kts | 12° |
| 2026-05-04 13:50 | 37.60975 | -122.38636 | 26 ft | 3 kts | 12° |
| 2026-05-04 13:50 | 37.60954 | -122.38641 | 27 ft | 3 kts | 12° |
| 2026-05-04 13:50 | 37.60935 | -122.38652 | 28 ft | 3 kts | 50° |
| 2026-05-04 13:50 | 37.60927 | -122.38677 | 29 ft | 3 kts | 93° |
| 2026-05-04 13:51 | 37.60929 | -122.38689 | 29 ft | 0 kts | 104° |
| 2026-05-04 13:53 | 37.60928 | -122.38682 | 24 ft | 3 kts | 104° |
| 2026-05-04 13:53 | 37.60906 | -122.38605 | 25 ft | 14 kts | 120° |
| 2026-05-04 13:54 | 37.60840 | -122.38373 | 26 ft | 15 kts | 118° |
| 2026-05-04 13:54 | 37.60788 | -122.38251 | 24 ft | 16 kts | 118° |
| 2026-05-04 13:54 | 37.60633 | -122.38062 | 25 ft | 17 kts | 117° |
| 2026-05-04 13:55 | 37.60619 | -122.37924 | 27 ft | 18 kts | 50° |
| 2026-05-04 13:55 | 37.60844 | -122.37770 | 24 ft | 19 kts | 27° |
| 2026-05-04 13:55 | 37.60964 | -122.37691 | 26 ft | 20 kts | 27° |
| 2026-05-04 13:56 | 37.61086 | -122.37611 | 24 ft | 20 kts | 27° |
| 2026-05-04 13:56 | 37.61209 | -122.37530 | 26 ft | 21 kts | 28° |
| 2026-05-04 13:56 | 37.61467 | -122.37358 | 24 ft | 21 kts | 27° |
| 2026-05-04 13:57 | 37.61557 | -122.37224 | 24 ft | 21 kts | 71° |
| 2026-05-04 13:57 | 37.61525 | -122.37049 | 24 ft | 22 kts | 117° |
| 2026-05-04 13:58 | 37.61274 | -122.36558 | 24 ft | 23 kts | 118° |
| 2026-05-04 13:58 | 37.61118 | -122.36194 | 24 ft | 24 kts | 118° |
| 2026-05-04 13:58 | 37.61053 | -122.36031 | 24 ft | 15 kts | 105° |
| 2026-05-04 13:59 | 37.61087 | -122.35911 | 24 ft | 16 kts | 34° |
| 2026-05-04 13:59 | 37.61153 | -122.35870 | 24 ft | 6 kts | 8° |
| 2026-05-04 13:59 | 37.61217 | -122.35946 | 24 ft | 8 kts | 298° |
| 2026-05-04 14:00 | 37.61253 | -122.36032 | 24 ft | 27 kts | 298° |
| 2026-05-04 14:00 | 37.61848 | -122.37455 | 25 ft | 150 kts | 297° |
| 2026-05-04 14:00 | 37.62394 | -122.38754 | 242 ft | 170 kts | 298° |
| 2026-05-04 14:01 | 37.62969 | -122.40009 | 941 ft | 165 kts | 310° |
| 2026-05-04 14:01 | 37.63955 | -122.40720 | 1440 ft | 171 kts | 354° |
| 2026-05-04 14:01 | 37.66382 | -122.39363 | 1989 ft | 219 kts | 35° |
| 2026-05-04 14:02 | 37.67702 | -122.38206 | 2329 ft | 244 kts | 34° |
| 2026-05-04 14:02 | 37.69151 | -122.36927 | 2806 ft | 262 kts | 36° |
| 2026-05-04 14:02 | 37.70619 | -122.35535 | 3639 ft | 265 kts | 37° |
| 2026-05-04 14:02 | 37.72054 | -122.34284 | 4435 ft | 267 kts | 26° |
| 2026-05-04 14:03 | 37.73850 | -122.33694 | 5200 ft | 271 kts | 359° |
| 2026-05-04 14:03 | 37.75694 | -122.34174 | 5916 ft | 275 kts | 340° |
| 2026-05-04 14:03 | 37.77489 | -122.35094 | 6631 ft | 281 kts | 338° |
| 2026-05-04 14:03 | 37.79303 | -122.36056 | 7347 ft | 285 kts | 338° |
| 2026-05-04 14:04 | 37.83008 | -122.37941 | 8911 ft | 289 kts | 340° |
| 2026-05-04 14:04 | 37.84947 | -122.38640 | 9690 ft | 291 kts | 354° |
| 2026-05-04 14:04 | 37.86938 | -122.38718 | 10325 ft | 298 kts | 3° |
| 2026-05-04 14:05 | 37.91287 | -122.38132 | 10982 ft | 330 kts | 21° |
| 2026-05-04 14:05 | 37.93286 | -122.36717 | 11615 ft | 332 kts | 41° |
| 2026-05-04 14:05 | 37.94760 | -122.34490 | 12334 ft | 332 kts | 62° |
| 2026-05-04 14:06 | 37.95568 | -122.31759 | 13065 ft | 333 kts | 76° |
| 2026-05-04 14:06 | 37.96097 | -122.28902 | 13812 ft | 336 kts | 77° |
| 2026-05-04 14:06 | 37.96623 | -122.26009 | 14476 ft | 338 kts | 77° |
| 2026-05-04 14:06 | 37.97175 | -122.23093 | 15120 ft | 341 kts | 76° |
| 2026-05-04 14:07 | 37.97742 | -122.20185 | 15761 ft | 343 kts | 76° |
| 2026-05-04 14:07 | 37.98317 | -122.17277 | 16398 ft | 346 kts | 76° |
| 2026-05-04 14:07 | 37.98790 | -122.14270 | 17034 ft | 349 kts | 84° |
| 2026-05-04 14:07 | 37.98883 | -122.11189 | 17666 ft | 352 kts | 89° |
| 2026-05-04 14:08 | 37.98888 | -122.08076 | 18285 ft | 355 kts | 89° |
| 2026-05-04 14:08 | 37.98891 | -122.04943 | 18831 ft | 357 kts | 89° |
| 2026-05-04 14:08 | 37.98897 | -122.01788 | 19389 ft | 359 kts | 89° |
| 2026-05-04 14:08 | 37.98911 | -121.98620 | 19940 ft | 360 kts | 89° |
| 2026-05-04 14:09 | 37.98946 | -121.92288 | 21014 ft | 363 kts | 89° |
| 2026-05-04 14:09 | 37.98965 | -121.89083 | 21547 ft | 365 kts | 89° |
| 2026-05-04 14:10 | 37.98992 | -121.82674 | 22588 ft | 369 kts | 88° |
| 2026-05-04 14:10 | 37.99008 | -121.79416 | 23113 ft | 370 kts | 88° |
| 2026-05-04 14:10 | 37.99022 | -121.76143 | 23614 ft | 372 kts | 88° |
| 2026-05-04 14:10 | 37.99036 | -121.72857 | 24019 ft | 375 kts | 89° |
| 2026-05-04 14:11 | 37.99048 | -121.69545 | 24396 ft | 378 kts | 89° |
| 2026-05-04 14:11 | 37.99070 | -121.62882 | 25086 ft | 383 kts | 89° |
| 2026-05-04 14:11 | 37.99079 | -121.59485 | 25436 ft | 386 kts | 89° |
| 2026-05-04 14:12 | 37.99085 | -121.56072 | 25784 ft | 389 kts | 89° |
| 2026-05-04 14:12 | 37.99093 | -121.52625 | 26123 ft | 392 kts | 89° |
| 2026-05-04 14:12 | 37.99102 | -121.45661 | 26772 ft | 398 kts | 89° |
| 2026-05-04 14:13 | 37.99105 | -121.42193 | 27081 ft | 400 kts | 89° |
| 2026-05-04 14:13 | 37.99113 | -121.38651 | 27386 ft | 403 kts | 89° |
| 2026-05-04 14:13 | 37.99115 | -121.35086 | 27686 ft | 406 kts | 89° |
| 2026-05-04 14:13 | 37.99111 | -121.31497 | 27969 ft | 409 kts | 89° |
| 2026-05-04 14:14 | 37.99110 | -121.27888 | 28249 ft | 412 kts | 89° |
| 2026-05-04 14:14 | 37.99103 | -121.20578 | 28784 ft | 417 kts | 90° |
| 2026-05-04 14:14 | 37.99097 | -121.16904 | 29029 ft | 421 kts | 90° |
| 2026-05-04 14:15 | 37.99252 | -121.09444 | 29500 ft | 427 kts | 83° |
| 2026-05-04 14:15 | 38.00335 | -121.02039 | 29956 ft | 433 kts | 78° |
| 2026-05-04 14:16 | 38.01542 | -120.94510 | 30342 ft | 439 kts | 79° |
| 2026-05-04 14:16 | 38.02139 | -120.90700 | 30504 ft | 442 kts | 79° |
| 2026-05-04 14:17 | 38.03331 | -120.82998 | 30838 ft | 449 kts | 79° |
| 2026-05-04 14:17 | 38.03930 | -120.79096 | 31010 ft | 452 kts | 79° |
| 2026-05-04 14:17 | 38.05130 | -120.71232 | 31409 ft | 456 kts | 80° |
| 2026-05-04 14:18 | 38.05722 | -120.67329 | 31614 ft | 458 kts | 80° |
| 2026-05-04 14:18 | 38.06930 | -120.59359 | 32016 ft | 461 kts | 80° |
| 2026-05-04 14:19 | 38.08144 | -120.51340 | 32407 ft | 464 kts | 81° |
| 2026-05-04 14:19 | 38.08749 | -120.47305 | 32616 ft | 466 kts | 81° |
| 2026-05-04 14:19 | 38.09357 | -120.43256 | 32798 ft | 467 kts | 81° |
| 2026-05-04 14:19 | 38.09960 | -120.39230 | 32987 ft | 468 kts | 81° |
| 2026-05-04 14:20 | 38.10561 | -120.35205 | 33074 ft | 472 kts | 81° |
| 2026-05-04 14:20 | 38.11798 | -120.26906 | 33053 ft | 484 kts | 81° |
| 2026-05-04 14:21 | 38.13682 | -120.14148 | 32998 ft | 493 kts | 81° |
| 2026-05-04 14:21 | 38.14942 | -120.05564 | 32989 ft | 495 kts | 82° |
| 2026-05-04 14:22 | 38.16189 | -119.97019 | 32979 ft | 496 kts | 82° |
| 2026-05-04 14:22 | 38.17446 | -119.88391 | 32968 ft | 497 kts | 82° |
| 2026-05-04 14:23 | 38.19321 | -119.75411 | 32960 ft | 499 kts | 82° |
| 2026-05-04 14:24 | 38.20566 | -119.66725 | 32950 ft | 500 kts | 82° |
| 2026-05-04 14:24 | 38.21798 | -119.58075 | 32935 ft | 501 kts | 82° |
| 2026-05-04 14:25 | 38.23034 | -119.49379 | 32931 ft | 502 kts | 82° |
| 2026-05-04 14:25 | 38.24877 | -119.36261 | 32921 ft | 504 kts | 83° |
| 2026-05-04 14:26 | 38.26106 | -119.27477 | 32907 ft | 505 kts | 83° |
| 2026-05-04 14:26 | 38.27320 | -119.18720 | 32898 ft | 506 kts | 83° |
| 2026-05-04 14:27 | 38.28545 | -119.09883 | 32883 ft | 507 kts | 83° |
| 2026-05-04 14:27 | 38.29763 | -119.01027 | 32870 ft | 509 kts | 83° |
| 2026-05-04 14:28 | 38.30972 | -118.92141 | 32867 ft | 511 kts | 83° |
| 2026-05-04 14:28 | 38.32180 | -118.83265 | 32883 ft | 513 kts | 83° |
| 2026-05-04 14:29 | 38.34600 | -118.65317 | 32902 ft | 516 kts | 84° |
| 2026-05-04 14:30 | 38.35796 | -118.56304 | 32894 ft | 517 kts | 84° |
| 2026-05-04 14:31 | 38.37578 | -118.42812 | 32879 ft | 518 kts | 84° |
| 2026-05-04 14:32 | 38.39966 | -118.24674 | 32835 ft | 520 kts | 84° |
| 2026-05-04 14:32 | 38.41145 | -118.15565 | 32827 ft | 521 kts | 84° |
| 2026-05-04 14:33 | 38.42315 | -118.06495 | 32825 ft | 523 kts | 84° |
| 2026-05-04 14:33 | 38.43491 | -117.97332 | 32826 ft | 524 kts | 85° |
| 2026-05-04 14:34 | 38.44663 | -117.88147 | 32833 ft | 526 kts | 85° |
| 2026-05-04 14:34 | 38.45822 | -117.78931 | 32834 ft | 527 kts | 85° |
| 2026-05-04 14:35 | 38.46973 | -117.69770 | 32829 ft | 528 kts | 85° |
| 2026-05-04 14:35 | 38.48132 | -117.60513 | 32833 ft | 529 kts | 85° |
| 2026-05-04 14:36 | 38.49282 | -117.51236 | 32833 ft | 529 kts | 85° |
| 2026-05-04 14:36 | 38.50415 | -117.41954 | 32828 ft | 530 kts | 85° |
| 2026-05-04 14:37 | 38.51545 | -117.32659 | 32836 ft | 530 kts | 85° |
| 2026-05-04 14:37 | 38.51673 | -117.23442 | 32839 ft | 519 kts | 101° |
| 2026-05-04 14:38 | 38.50885 | -117.14278 | 32838 ft | 519 kts | 102° |
| 2026-05-04 14:38 | 38.50101 | -117.05112 | 32839 ft | 520 kts | 102° |
| 2026-05-04 14:39 | 38.49468 | -116.97466 | 32843 ft | 521 kts | 102° |
| 2026-05-04 14:39 | 38.48570 | -116.86772 | 32834 ft | 522 kts | 102° |
| 2026-05-04 14:40 | 38.47400 | -116.72965 | 32824 ft | 523 kts | 102° |
| 2026-05-04 14:40 | 38.46743 | -116.65291 | 32837 ft | 523 kts | 102° |
| 2026-05-04 14:41 | 38.45945 | -116.56059 | 32835 ft | 524 kts | 102° |
| 2026-05-04 14:42 | 38.44324 | -116.37650 | 32819 ft | 524 kts | 103° |
| 2026-05-04 14:42 | 38.43492 | -116.28413 | 32818 ft | 524 kts | 103° |
| 2026-05-04 14:43 | 38.42522 | -116.17667 | 32811 ft | 525 kts | 103° |
| 2026-05-04 14:43 | 38.41679 | -116.08431 | 32807 ft | 525 kts | 103° |
| 2026-05-04 14:44 | 38.40975 | -116.00742 | 32800 ft | 525 kts | 103° |
| 2026-05-04 14:44 | 38.40129 | -115.91543 | 32785 ft | 525 kts | 103° |
| 2026-05-04 14:45 | 38.39267 | -115.82297 | 32778 ft | 525 kts | 102° |
| 2026-05-04 14:45 | 38.38408 | -115.73057 | 32774 ft | 525 kts | 103° |
| 2026-05-04 14:46 | 38.37533 | -115.63813 | 32771 ft | 525 kts | 103° |
| 2026-05-04 14:46 | 38.36655 | -115.54648 | 32760 ft | 525 kts | 103° |
| 2026-05-04 14:47 | 38.35766 | -115.45411 | 32746 ft | 525 kts | 103° |
| 2026-05-04 14:47 | 38.34868 | -115.36177 | 32748 ft | 525 kts | 103° |
| 2026-05-04 14:48 | 38.33960 | -115.26950 | 32745 ft | 525 kts | 103° |
| 2026-05-04 14:48 | 38.33055 | -115.17777 | 32745 ft | 525 kts | 103° |
| 2026-05-04 14:49 | 38.32133 | -115.08540 | 32747 ft | 526 kts | 103° |
| 2026-05-04 14:49 | 38.31209 | -114.99317 | 32752 ft | 526 kts | 103° |
| 2026-05-04 14:50 | 38.30271 | -114.90083 | 32750 ft | 526 kts | 103° |
| 2026-05-04 14:50 | 38.29335 | -114.80898 | 32748 ft | 527 kts | 103° |
| 2026-05-04 14:51 | 38.28385 | -114.71654 | 32758 ft | 527 kts | 103° |
| 2026-05-04 14:51 | 38.27426 | -114.62399 | 32763 ft | 527 kts | 103° |
| 2026-05-04 14:52 | 38.26457 | -114.53137 | 32770 ft | 528 kts | 103° |
| 2026-05-04 14:52 | 38.25489 | -114.43941 | 32779 ft | 528 kts | 103° |
| 2026-05-04 14:53 | 38.23593 | -114.35080 | 32771 ft | 514 kts | 120° |
| 2026-05-04 14:53 | 38.20712 | -114.26781 | 32783 ft | 514 kts | 121° |
| 2026-05-04 14:54 | 38.17818 | -114.18460 | 32772 ft | 515 kts | 121° |
| 2026-05-04 14:54 | 38.14942 | -114.10113 | 32790 ft | 516 kts | 121° |
| 2026-05-04 14:55 | 38.12081 | -114.01812 | 32788 ft | 517 kts | 121° |
| 2026-05-04 14:55 | 38.09184 | -113.93433 | 32790 ft | 519 kts | 121° |
| 2026-05-04 14:56 | 38.06273 | -113.85050 | 32799 ft | 520 kts | 121° |
| 2026-05-04 14:56 | 38.03347 | -113.76654 | 32799 ft | 522 kts | 122° |
| 2026-05-04 14:57 | 38.00425 | -113.68273 | 32806 ft | 523 kts | 122° |
| 2026-05-04 14:57 | 37.97476 | -113.59842 | 32795 ft | 525 kts | 122° |
| 2026-05-04 14:58 | 37.94504 | -113.51389 | 32795 ft | 526 kts | 122° |
| 2026-05-04 14:58 | 37.91543 | -113.42901 | 32809 ft | 530 kts | 120° |
| 2026-05-04 14:59 | 37.90476 | -113.38451 | 32828 ft | 543 kts | 107° |
| 2026-05-04 14:59 | 37.90115 | -113.33650 | 32851 ft | 555 kts | 94° |
| 2026-05-04 15:00 | 37.90801 | -113.18944 | 32906 ft | 558 kts | 90° |
| 2026-05-04 15:00 | 37.91228 | -113.09129 | 32918 ft | 559 kts | 91° |
| 2026-05-04 15:01 | 37.91808 | -112.94446 | 32893 ft | 560 kts | 91° |
| 2026-05-04 15:01 | 37.92192 | -112.84591 | 32869 ft | 561 kts | 91° |
| 2026-05-04 15:02 | 37.92560 | -112.74726 | 32844 ft | 561 kts | 91° |
| 2026-05-04 15:02 | 37.92924 | -112.64847 | 32861 ft | 561 kts | 91° |
| 2026-05-04 15:03 | 37.93230 | -112.55034 | 32858 ft | 561 kts | 93° |
| 2026-05-04 15:03 | 37.93296 | -112.45159 | 32889 ft | 563 kts | 90° |
| 2026-05-04 15:04 | 37.93928 | -112.35253 | 32950 ft | 564 kts | 89° |
| 2026-05-04 15:04 | 37.94352 | -112.25407 | 32974 ft | 563 kts | 91° |
| 2026-05-04 15:05 | 37.94668 | -112.15492 | 32978 ft | 564 kts | 91° |
| 2026-05-04 15:05 | 37.94984 | -112.05555 | 32978 ft | 564 kts | 91° |
| 2026-05-04 15:06 | 37.95299 | -111.95616 | 32952 ft | 565 kts | 91° |
| 2026-05-04 15:07 | 37.95756 | -111.80695 | 32887 ft | 566 kts | 91° |
| 2026-05-04 15:07 | 37.96049 | -111.70791 | 32881 ft | 566 kts | 91° |
| 2026-05-04 15:08 | 37.96335 | -111.60802 | 32877 ft | 567 kts | 91° |
| 2026-05-04 15:08 | 37.96614 | -111.50807 | 32865 ft | 568 kts | 91° |
| 2026-05-04 15:09 | 37.96885 | -111.40805 | 32852 ft | 569 kts | 91° |
| 2026-05-04 15:09 | 37.97137 | -111.30846 | 32843 ft | 569 kts | 91° |
| 2026-05-04 15:10 | 37.97466 | -111.15803 | 32846 ft | 570 kts | 91° |
| 2026-05-04 15:11 | 37.97826 | -111.00734 | 32835 ft | 571 kts | 91° |
| 2026-05-04 15:11 | 37.98052 | -110.90738 | 32829 ft | 572 kts | 91° |
| 2026-05-04 15:12 | 37.98268 | -110.80661 | 32833 ft | 572 kts | 91° |
| 2026-05-04 15:12 | 37.98486 | -110.70591 | 32825 ft | 571 kts | 91° |
| 2026-05-04 15:13 | 37.98697 | -110.60510 | 32825 ft | 573 kts | 91° |
| 2026-05-04 15:13 | 37.98894 | -110.50471 | 32819 ft | 574 kts | 91° |
| 2026-05-04 15:14 | 37.99082 | -110.40355 | 32828 ft | 574 kts | 91° |
| 2026-05-04 15:14 | 37.99243 | -110.30248 | 32826 ft | 574 kts | 91° |
| 2026-05-04 15:15 | 37.99390 | -110.20122 | 32817 ft | 574 kts | 91° |
| 2026-05-04 15:15 | 37.99551 | -110.10002 | 32828 ft | 575 kts | 91° |
| 2026-05-04 15:16 | 37.99883 | -109.94883 | 32824 ft | 576 kts | 89° |
| 2026-05-04 15:17 | 38.00455 | -109.79657 | 32830 ft | 577 kts | 89° |
| 2026-05-04 15:17 | 38.00987 | -109.64511 | 32847 ft | 576 kts | 89° |
| 2026-05-04 15:18 | 38.01337 | -109.54359 | 32860 ft | 576 kts | 89° |
| 2026-05-04 15:19 | 38.01849 | -109.39135 | 32884 ft | 577 kts | 89° |
| 2026-05-04 15:19 | 38.02347 | -109.23878 | 32877 ft | 577 kts | 89° |
| 2026-05-04 15:20 | 38.02660 | -109.13784 | 32888 ft | 577 kts | 89° |
| 2026-05-04 15:20 | 38.02966 | -109.03624 | 32888 ft | 576 kts | 89° |
| 2026-05-04 15:21 | 38.03269 | -108.93464 | 32875 ft | 576 kts | 89° |
| 2026-05-04 15:22 | 38.03703 | -108.78237 | 32883 ft | 576 kts | 88° |
| 2026-05-04 15:22 | 38.04113 | -108.63081 | 32880 ft | 575 kts | 88° |
| 2026-05-04 15:23 | 38.04376 | -108.52938 | 32891 ft | 575 kts | 88° |
| 2026-05-04 15:23 | 38.04633 | -108.42794 | 32890 ft | 575 kts | 88° |
| 2026-05-04 15:24 | 38.05121 | -108.22519 | 33009 ft | 575 kts | 88° |
| 2026-05-04 15:25 | 38.05346 | -108.12459 | 33108 ft | 574 kts | 88° |
| 2026-05-04 15:26 | 38.05674 | -107.97275 | 33184 ft | 574 kts | 88° |
| 2026-05-04 15:26 | 38.05981 | -107.82109 | 33159 ft | 573 kts | 88° |
| 2026-05-04 15:27 | 38.06271 | -107.67023 | 33090 ft | 572 kts | 89° |
| 2026-05-04 15:28 | 38.06533 | -107.51919 | 32996 ft | 571 kts | 88° |
| 2026-05-04 15:29 | 38.06789 | -107.36797 | 32938 ft | 571 kts | 89° |
| 2026-05-04 15:30 | 38.06150 | -107.01651 | 32965 ft | 571 kts | 93° |
| 2026-05-04 15:31 | 38.05609 | -106.86640 | 32956 ft | 571 kts | 93° |
| 2026-05-04 15:32 | 38.04648 | -106.61514 | 32942 ft | 569 kts | 93° |
| 2026-05-04 15:34 | 38.03651 | -106.36527 | 32971 ft | 569 kts | 93° |
| 2026-05-04 15:34 | 38.03028 | -106.21525 | 32939 ft | 568 kts | 93° |
| 2026-05-04 15:35 | 38.02388 | -106.06522 | 32912 ft | 568 kts | 93° |
| 2026-05-04 15:36 | 38.01737 | -105.91573 | 32909 ft | 569 kts | 93° |
| 2026-05-04 15:36 | 38.01286 | -105.81551 | 32910 ft | 569 kts | 93° |
| 2026-05-04 15:37 | 38.01159 | -105.71527 | 32905 ft | 569 kts | 89° |
| 2026-05-04 15:37 | 38.01224 | -105.61491 | 32899 ft | 568 kts | 89° |
| 2026-05-04 15:38 | 38.01283 | -105.51557 | 32856 ft | 568 kts | 89° |
| 2026-05-04 15:38 | 38.01342 | -105.41548 | 32873 ft | 567 kts | 88° |
| 2026-05-04 15:39 | 38.01399 | -105.31553 | 32860 ft | 567 kts | 88° |
| 2026-05-04 15:40 | 38.01460 | -105.16642 | 32805 ft | 565 kts | 89° |
| 2026-05-04 15:40 | 38.01480 | -105.06692 | 32789 ft | 564 kts | 89° |
| 2026-05-04 15:41 | 38.01501 | -104.96901 | 32762 ft | 564 kts | 89° |
| 2026-05-04 15:41 | 38.01511 | -104.86992 | 32740 ft | 563 kts | 89° |
| 2026-05-04 15:42 | 38.01517 | -104.77133 | 32735 ft | 562 kts | 89° |
| 2026-05-04 15:42 | 38.01505 | -104.67209 | 32748 ft | 563 kts | 89° |
| 2026-05-04 15:43 | 38.01476 | -104.57287 | 32764 ft | 563 kts | 89° |
| 2026-05-04 15:43 | 38.01452 | -104.47368 | 32760 ft | 563 kts | 89° |
| 2026-05-04 15:44 | 38.01420 | -104.37511 | 32745 ft | 562 kts | 89° |
| 2026-05-04 15:44 | 38.01385 | -104.27593 | 32720 ft | 562 kts | 89° |
| 2026-05-04 15:45 | 38.01335 | -104.17679 | 32695 ft | 562 kts | 89° |
| 2026-05-04 15:45 | 38.01274 | -104.07763 | 32687 ft | 562 kts | 89° |
| 2026-05-04 15:46 | 38.01212 | -103.97928 | 32689 ft | 562 kts | 89° |
| 2026-05-04 15:46 | 38.01137 | -103.88016 | 32732 ft | 561 kts | 89° |
| 2026-05-04 15:47 | 38.01054 | -103.78132 | 32788 ft | 561 kts | 89° |
| 2026-05-04 15:47 | 38.00964 | -103.68248 | 32841 ft | 561 kts | 89° |
| 2026-05-04 15:48 | 38.00871 | -103.58366 | 32879 ft | 560 kts | 89° |
| 2026-05-04 15:48 | 38.00697 | -103.43613 | 32882 ft | 560 kts | 89° |
| 2026-05-04 15:49 | 38.00578 | -103.33750 | 32848 ft | 559 kts | 89° |
| 2026-05-04 15:49 | 38.00454 | -103.23888 | 32800 ft | 559 kts | 89° |
| 2026-05-04 15:50 | 38.00320 | -103.14098 | 32756 ft | 559 kts | 89° |
| 2026-05-04 15:50 | 38.00171 | -103.04262 | 32748 ft | 558 kts | 89° |
| 2026-05-04 15:51 | 38.00018 | -102.94422 | 32782 ft | 558 kts | 89° |
| 2026-05-04 15:51 | 37.99857 | -102.84595 | 32816 ft | 557 kts | 89° |
| 2026-05-04 15:52 | 37.99695 | -102.74837 | 32840 ft | 557 kts | 89° |
| 2026-05-04 15:52 | 37.99527 | -102.65031 | 32840 ft | 556 kts | 89° |
| 2026-05-04 15:53 | 37.99343 | -102.55225 | 32824 ft | 556 kts | 89° |
| 2026-05-04 15:53 | 37.99144 | -102.45421 | 32797 ft | 556 kts | 90° |
| 2026-05-04 15:54 | 37.98946 | -102.35636 | 33000 ft | 553 kts | 89° |
| 2026-05-04 15:54 | 37.98955 | -102.30850 | 33508 ft | 546 kts | 86° |
| 2026-05-04 15:54 | 37.99021 | -102.26055 | 33761 ft | 545 kts | 86° |
| 2026-05-04 15:55 | 37.99088 | -102.21243 | 33877 ft | 547 kts | 86° |
| 2026-05-04 15:55 | 37.99155 | -102.16413 | 33960 ft | 550 kts | 86° |
| 2026-05-04 15:55 | 37.99219 | -102.11547 | 34112 ft | 551 kts | 86° |
| 2026-05-04 15:55 | 37.99283 | -102.06700 | 34285 ft | 552 kts | 86° |
| 2026-05-04 15:56 | 37.99343 | -102.01827 | 34453 ft | 552 kts | 86° |
| 2026-05-04 15:56 | 37.99399 | -101.96966 | 34604 ft | 553 kts | 86° |
| 2026-05-04 15:56 | 37.99448 | -101.92153 | 34725 ft | 554 kts | 86° |
| 2026-05-04 15:56 | 37.99495 | -101.87256 | 34745 ft | 558 kts | 86° |
| 2026-05-04 15:57 | 37.99599 | -101.77397 | 34716 ft | 560 kts | 86° |
| 2026-05-04 15:57 | 37.99694 | -101.67520 | 34699 ft | 560 kts | 86° |
| 2026-05-04 15:58 | 37.99780 | -101.57661 | 34696 ft | 559 kts | 86° |
| 2026-05-04 15:58 | 37.99853 | -101.47881 | 34699 ft | 558 kts | 86° |
| 2026-05-04 15:59 | 37.99918 | -101.38032 | 34695 ft | 558 kts | 86° |
| 2026-05-04 15:59 | 37.99958 | -101.28200 | 34693 ft | 558 kts | 87° |
| 2026-05-04 16:00 | 38.00013 | -101.18384 | 34692 ft | 557 kts | 86° |
| 2026-05-04 16:00 | 38.00067 | -101.08614 | 34711 ft | 557 kts | 87° |
| 2026-05-04 16:01 | 38.00103 | -100.98803 | 34732 ft | 557 kts | 87° |
| 2026-05-04 16:01 | 38.00132 | -100.88975 | 34751 ft | 557 kts | 87° |
| 2026-05-04 16:02 | 38.00148 | -100.79167 | 34773 ft | 557 kts | 87° |
| 2026-05-04 16:03 | 38.00153 | -100.64524 | 34769 ft | 556 kts | 87° |
| 2026-05-04 16:03 | 38.00130 | -100.54726 | 34754 ft | 556 kts | 87° |
| 2026-05-04 16:04 | 38.00118 | -100.44924 | 34733 ft | 555 kts | 86° |
| 2026-05-04 16:04 | 38.00108 | -100.30262 | 34703 ft | 554 kts | 87° |
| 2026-05-04 16:05 | 38.00059 | -100.20561 | 34710 ft | 554 kts | 87° |
| 2026-05-04 16:06 | 38.00012 | -100.05943 | 34718 ft | 553 kts | 87° |
| 2026-05-04 16:07 | 38.00812 | -99.86661 | 34716 ft | 548 kts | 81° |
| 2026-05-04 16:08 | 38.02004 | -99.67419 | 34695 ft | 547 kts | 81° |
| 2026-05-04 16:09 | 38.03410 | -99.43407 | 34698 ft | 546 kts | 82° |
| 2026-05-04 16:10 | 38.04514 | -99.24308 | 34721 ft | 544 kts | 82° |
| 2026-05-04 16:11 | 38.05581 | -99.05186 | 34731 ft | 542 kts | 82° |
| 2026-05-04 16:12 | 38.07108 | -98.76697 | 34706 ft | 539 kts | 82° |
| 2026-05-04 16:13 | 38.08086 | -98.57769 | 34686 ft | 537 kts | 82° |
| 2026-05-04 16:14 | 38.08927 | -98.38912 | 34691 ft | 538 kts | 86° |
| 2026-05-04 16:16 | 38.08545 | -98.15235 | 34705 ft | 536 kts | 88° |
| 2026-05-04 16:17 | 38.08109 | -97.91697 | 34727 ft | 534 kts | 88° |
| 2026-05-04 16:18 | 38.07731 | -97.72866 | 34734 ft | 533 kts | 88° |
| 2026-05-04 16:19 | 38.07215 | -97.49394 | 34736 ft | 537 kts | 88° |
| 2026-05-04 16:20 | 38.06642 | -97.25839 | 34747 ft | 534 kts | 88° |
| 2026-05-04 16:22 | 38.06033 | -97.02352 | 34731 ft | 532 kts | 88° |
| 2026-05-04 16:23 | 38.05242 | -96.74390 | 34720 ft | 528 kts | 89° |
| 2026-05-04 16:25 | 38.04390 | -96.46619 | 34710 ft | 525 kts | 89° |
| 2026-05-04 16:26 | 38.03323 | -96.14439 | 34725 ft | 521 kts | 89° |
| 2026-05-04 16:28 | 38.02727 | -95.91538 | 34721 ft | 515 kts | 80° |
| 2026-05-04 16:29 | 38.08040 | -95.60957 | 34741 ft | 507 kts | 72° |
| 2026-05-04 16:31 | 38.11845 | -95.39209 | 34734 ft | 506 kts | 73° |
| 2026-05-04 16:32 | 38.16372 | -95.13048 | 34728 ft | 505 kts | 73° |
| 2026-05-04 16:33 | 38.19335 | -94.95691 | 34732 ft | 504 kts | 73° |
| 2026-05-04 16:34 | 38.21554 | -94.82608 | 34732 ft | 504 kts | 73° |
| 2026-05-04 16:35 | 38.25925 | -94.56529 | 34732 ft | 504 kts | 73° |
| 2026-05-04 16:36 | 38.28094 | -94.43443 | 34737 ft | 504 kts | 73° |
| 2026-05-04 16:37 | 38.30233 | -94.30410 | 34737 ft | 504 kts | 73° |
| 2026-05-04 16:38 | 38.33077 | -94.12939 | 34735 ft | 504 kts | 74° |
| 2026-05-04 16:39 | 38.36591 | -93.91122 | 34748 ft | 504 kts | 74° |
| 2026-05-04 16:40 | 38.39387 | -93.73565 | 34757 ft | 509 kts | 74° |
| 2026-05-04 16:41 | 38.42861 | -93.51464 | 34750 ft | 510 kts | 75° |
| 2026-05-04 16:43 | 38.46306 | -93.29302 | 34761 ft | 509 kts | 75° |
| 2026-05-04 16:43 | 38.48344 | -93.16047 | 34754 ft | 509 kts | 75° |
| 2026-05-04 16:45 | 38.52380 | -92.89442 | 34747 ft | 509 kts | 75° |
| 2026-05-04 16:46 | 38.55698 | -92.67292 | 34741 ft | 509 kts | 76° |
| 2026-05-04 16:47 | 38.58331 | -92.49485 | 34743 ft | 510 kts | 76° |
| 2026-05-04 16:48 | 38.60922 | -92.31748 | 34752 ft | 509 kts | 76° |
| 2026-05-04 16:49 | 38.63490 | -92.13959 | 34751 ft | 508 kts | 76° |
| 2026-05-04 16:50 | 38.66053 | -91.96244 | 34750 ft | 508 kts | 75° |
| 2026-05-04 16:51 | 38.67959 | -91.82912 | 34743 ft | 508 kts | 75° |
| 2026-05-04 16:52 | 38.70461 | -91.65161 | 34748 ft | 509 kts | 76° |
| 2026-05-04 16:53 | 38.72303 | -91.51769 | 34752 ft | 509 kts | 76° |
| 2026-05-04 16:54 | 38.74750 | -91.33910 | 34766 ft | 509 kts | 76° |
| 2026-05-04 16:55 | 38.78350 | -91.07155 | 34777 ft | 509 kts | 76° |
| 2026-05-04 16:56 | 38.81314 | -90.84818 | 34783 ft | 510 kts | 76° |
| 2026-05-04 16:57 | 38.83076 | -90.71375 | 34789 ft | 510 kts | 76° |
| 2026-05-04 16:58 | 38.85407 | -90.53418 | 34781 ft | 511 kts | 76° |
| 2026-05-04 17:00 | 38.90045 | -90.26931 | 34781 ft | 509 kts | 72° |
| 2026-05-04 17:01 | 38.94115 | -90.04878 | 34811 ft | 509 kts | 72° |
| 2026-05-04 17:02 | 38.97348 | -89.87160 | 34804 ft | 510 kts | 72° |
| 2026-05-04 17:03 | 38.99751 | -89.73900 | 34796 ft | 510 kts | 72° |
| 2026-05-04 17:03 | 39.02151 | -89.60551 | 34777 ft | 511 kts | 72° |
| 2026-05-04 17:04 | 39.05337 | -89.42717 | 34770 ft | 512 kts | 72° |
| 2026-05-04 17:05 | 39.08484 | -89.24900 | 34784 ft | 512 kts | 72° |
| 2026-05-04 17:06 | 39.10834 | -89.11475 | 34785 ft | 513 kts | 73° |
| 2026-05-04 17:07 | 39.12915 | -88.99543 | 34790 ft | 513 kts | 73° |
| 2026-05-04 17:07 | 39.14719 | -88.89101 | 34796 ft | 514 kts | 73° |
| 2026-05-04 17:08 | 39.17041 | -88.75617 | 34803 ft | 514 kts | 73° |
| 2026-05-04 17:09 | 39.18579 | -88.66605 | 34796 ft | 515 kts | 73° |
| 2026-05-04 17:09 | 39.20110 | -88.57597 | 34800 ft | 515 kts | 73° |
| 2026-05-04 17:10 | 39.23905 | -88.35067 | 34807 ft | 516 kts | 73° |
| 2026-05-04 17:11 | 39.25418 | -88.26009 | 34809 ft | 516 kts | 73° |
| 2026-05-04 17:12 | 39.27664 | -88.12469 | 34809 ft | 517 kts | 73° |
| 2026-05-04 17:13 | 39.31391 | -87.89783 | 34799 ft | 518 kts | 74° |
| 2026-05-04 17:14 | 39.34347 | -87.71596 | 34803 ft | 519 kts | 74° |
| 2026-05-04 17:15 | 39.36550 | -87.57916 | 34814 ft | 519 kts | 74° |
| 2026-05-04 17:16 | 39.39464 | -87.39650 | 34811 ft | 519 kts | 74° |
| 2026-05-04 17:17 | 39.42335 | -87.21429 | 34815 ft | 519 kts | 75° |
| 2026-05-04 17:18 | 39.45173 | -87.03228 | 34813 ft | 519 kts | 74° |
| 2026-05-04 17:19 | 39.47991 | -86.84991 | 34812 ft | 518 kts | 75° |
| 2026-05-04 17:20 | 39.50758 | -86.66854 | 34809 ft | 518 kts | 75° |
| 2026-05-04 17:20 | 39.52840 | -86.53103 | 34808 ft | 517 kts | 75° |
| 2026-05-04 17:21 | 39.55578 | -86.34819 | 34798 ft | 516 kts | 75° |
| 2026-05-04 17:22 | 39.56933 | -86.25695 | 34812 ft | 516 kts | 75° |
| 2026-05-04 17:23 | 39.58917 | -86.12185 | 34766 ft | 497 kts | 76° |
| 2026-05-04 17:23 | 39.59563 | -86.07791 | 34802 ft | 495 kts | 76° |
| 2026-05-04 17:24 | 39.61481 | -85.94663 | 34814 ft | 494 kts | 76° |
| 2026-05-04 17:25 | 39.64265 | -85.77294 | 34831 ft | 493 kts | 72° |
| 2026-05-04 17:26 | 39.67364 | -85.61525 | 34824 ft | 493 kts | 72° |
| 2026-05-04 17:27 | 39.71557 | -85.39961 | 34819 ft | 493 kts | 72° |
| 2026-05-04 17:28 | 39.74866 | -85.22753 | 34826 ft | 493 kts | 73° |
| 2026-05-04 17:29 | 39.79793 | -84.96863 | 34852 ft | 493 kts | 73° |
| 2026-05-04 17:31 | 39.83855 | -84.75332 | 34851 ft | 493 kts | 73° |
| 2026-05-04 17:32 | 39.87890 | -84.53683 | 34833 ft | 492 kts | 73° |
| 2026-05-04 17:33 | 39.91072 | -84.36405 | 34838 ft | 492 kts | 73° |
| 2026-05-04 17:34 | 39.92439 | -84.23128 | 34841 ft | 496 kts | 85° |
| 2026-05-04 17:34 | 39.92611 | -84.18645 | 34840 ft | 496 kts | 85° |
| 2026-05-04 17:35 | 39.93492 | -83.96295 | 34823 ft | 495 kts | 85° |
| 2026-05-04 17:36 | 39.93847 | -83.87342 | 34821 ft | 495 kts | 85° |
| 2026-05-04 17:36 | 39.94189 | -83.78388 | 34827 ft | 495 kts | 85° |
| 2026-05-04 17:37 | 39.94523 | -83.69489 | 34851 ft | 495 kts | 85° |
| 2026-05-04 17:37 | 39.94855 | -83.60534 | 34857 ft | 494 kts | 85° |
| 2026-05-04 17:38 | 39.95173 | -83.51756 | 34857 ft | 494 kts | 85° |
| 2026-05-04 17:38 | 39.95489 | -83.42819 | 34860 ft | 494 kts | 85° |
| 2026-05-04 17:39 | 39.95899 | -83.30931 | 34859 ft | 493 kts | 85° |
| 2026-05-04 17:39 | 39.96027 | -83.27130 | 34863 ft | 493 kts | 85° |
| 2026-05-04 17:40 | 39.96389 | -83.18105 | 34869 ft | 491 kts | 82° |
| 2026-05-04 17:40 | 39.97288 | -83.09283 | 34871 ft | 491 kts | 79° |
| 2026-05-04 17:41 | 39.98214 | -83.00527 | 34860 ft | 491 kts | 80° |
| 2026-05-04 17:41 | 39.99120 | -82.91768 | 34865 ft | 490 kts | 80° |
| 2026-05-04 17:42 | 40.00019 | -82.82961 | 34864 ft | 490 kts | 80° |
| 2026-05-04 17:42 | 40.00918 | -82.74128 | 34860 ft | 490 kts | 80° |
| 2026-05-04 17:43 | 40.01798 | -82.65380 | 34858 ft | 490 kts | 80° |
| 2026-05-04 17:43 | 40.02678 | -82.56552 | 34862 ft | 490 kts | 80° |
| 2026-05-04 17:44 | 40.03552 | -82.47733 | 34861 ft | 490 kts | 80° |
| 2026-05-04 17:44 | 40.04403 | -82.39090 | 34859 ft | 490 kts | 80° |
| 2026-05-04 17:45 | 40.05275 | -82.30165 | 34858 ft | 490 kts | 80° |
| 2026-05-04 17:45 | 40.06129 | -82.21351 | 34858 ft | 489 kts | 80° |
| 2026-05-04 17:46 | 40.06973 | -82.12549 | 34870 ft | 489 kts | 80° |
| 2026-05-04 17:46 | 40.07810 | -82.03732 | 34871 ft | 489 kts | 81° |
| 2026-05-04 17:47 | 40.08621 | -81.95091 | 34876 ft | 489 kts | 81° |
| 2026-05-04 17:47 | 40.09444 | -81.86345 | 34879 ft | 489 kts | 81° |
| 2026-05-04 17:48 | 40.10263 | -81.77540 | 34876 ft | 489 kts | 81° |
| 2026-05-04 17:48 | 40.11074 | -81.68722 | 34869 ft | 488 kts | 81° |
| 2026-05-04 17:49 | 40.11879 | -81.59914 | 34867 ft | 488 kts | 81° |
| 2026-05-04 17:49 | 40.12657 | -81.51297 | 34870 ft | 488 kts | 81° |
| 2026-05-04 17:50 | 40.13461 | -81.42360 | 34871 ft | 488 kts | 81° |
| 2026-05-04 17:50 | 40.14246 | -81.33553 | 34873 ft | 487 kts | 81° |
| 2026-05-04 17:51 | 40.15021 | -81.24754 | 34878 ft | 487 kts | 81° |
| 2026-05-04 17:51 | 40.15787 | -81.16016 | 34879 ft | 487 kts | 81° |
| 2026-05-04 17:52 | 40.16545 | -81.07253 | 34876 ft | 487 kts | 81° |
| 2026-05-04 17:52 | 40.17297 | -80.98453 | 34876 ft | 487 kts | 81° |
| 2026-05-04 17:53 | 40.17993 | -80.89654 | 34881 ft | 487 kts | 82° |
| 2026-05-04 17:53 | 40.18636 | -80.80908 | 34882 ft | 487 kts | 82° |
| 2026-05-04 17:54 | 40.19288 | -80.72096 | 34883 ft | 486 kts | 82° |
| 2026-05-04 17:54 | 40.19930 | -80.63319 | 34887 ft | 486 kts | 82° |
| 2026-05-04 17:55 | 40.20570 | -80.54491 | 34884 ft | 486 kts | 82° |
| 2026-05-04 17:55 | 40.21207 | -80.45688 | 34883 ft | 487 kts | 82° |
| 2026-05-04 17:56 | 40.21828 | -80.36929 | 34918 ft | 486 kts | 82° |
| 2026-05-04 17:56 | 40.22451 | -80.28125 | 34921 ft | 486 kts | 82° |
| 2026-05-04 17:57 | 40.23064 | -80.19322 | 34922 ft | 486 kts | 82° |
| 2026-05-04 17:57 | 40.23644 | -80.10926 | 34922 ft | 486 kts | 82° |
| 2026-05-04 17:58 | 40.24240 | -80.02169 | 34895 ft | 486 kts | 82° |
| 2026-05-04 17:58 | 40.24834 | -79.93363 | 34893 ft | 486 kts | 82° |
| 2026-05-04 17:59 | 40.25420 | -79.84555 | 34899 ft | 486 kts | 82° |
| 2026-05-04 18:00 | 40.26287 | -79.71356 | 34896 ft | 485 kts | 82° |
| 2026-05-04 18:00 | 40.26850 | -79.62627 | 34920 ft | 485 kts | 82° |
| 2026-05-04 18:01 | 40.27413 | -79.53836 | 34922 ft | 484 kts | 82° |
| 2026-05-04 18:01 | 40.27969 | -79.45040 | 34932 ft | 484 kts | 82° |
| 2026-05-04 18:02 | 40.28785 | -79.31855 | 34931 ft | 484 kts | 82° |
| 2026-05-04 18:02 | 40.29318 | -79.23111 | 34929 ft | 485 kts | 82° |
| 2026-05-04 18:03 | 40.29842 | -79.14331 | 34917 ft | 485 kts | 82° |
| 2026-05-04 18:03 | 40.30370 | -79.05527 | 34907 ft | 485 kts | 82° |
| 2026-05-04 18:04 | 40.30893 | -78.96706 | 34910 ft | 485 kts | 82° |
| 2026-05-04 18:05 | 40.31630 | -78.83569 | 34898 ft | 486 kts | 85° |
| 2026-05-04 18:05 | 40.31662 | -78.74700 | 34899 ft | 487 kts | 87° |
| 2026-05-04 18:06 | 40.31617 | -78.61397 | 34902 ft | 487 kts | 87° |
| 2026-05-04 18:06 | 40.31595 | -78.52592 | 34900 ft | 486 kts | 87° |
| 2026-05-04 18:07 | 40.31575 | -78.43730 | 34900 ft | 487 kts | 87° |
| 2026-05-04 18:07 | 40.31538 | -78.34850 | 34898 ft | 487 kts | 87° |
| 2026-05-04 18:08 | 40.31486 | -78.25987 | 34903 ft | 487 kts | 87° |
| 2026-05-04 18:08 | 40.31434 | -78.17165 | 34900 ft | 487 kts | 87° |
| 2026-05-04 18:09 | 40.31312 | -77.99427 | 34910 ft | 487 kts | 87° |
| 2026-05-04 18:10 | 40.31236 | -77.90572 | 34913 ft | 487 kts | 87° |
| 2026-05-04 18:10 | 40.31155 | -77.81695 | 34920 ft | 487 kts | 87° |
| 2026-05-04 18:11 | 40.31073 | -77.72881 | 34923 ft | 487 kts | 87° |
| 2026-05-04 18:11 | 40.30979 | -77.64009 | 34918 ft | 487 kts | 87° |
| 2026-05-04 18:12 | 40.30876 | -77.55142 | 34920 ft | 487 kts | 87° |
| 2026-05-04 18:12 | 40.30769 | -77.46275 | 34924 ft | 487 kts | 88° |
| 2026-05-04 18:13 | 40.30653 | -77.37458 | 34931 ft | 487 kts | 88° |
| 2026-05-04 18:14 | 40.30469 | -77.24163 | 34924 ft | 487 kts | 88° |
| 2026-05-04 18:14 | 40.30337 | -77.15285 | 34935 ft | 487 kts | 88° |
| 2026-05-04 18:15 | 40.28155 | -76.97803 | 34927 ft | 494 kts | 105° |
| 2026-05-04 18:16 | 40.26114 | -76.89211 | 34924 ft | 494 kts | 105° |
| 2026-05-04 18:16 | 40.24106 | -76.80612 | 34919 ft | 495 kts | 104° |
| 2026-05-04 18:17 | 40.21098 | -76.67748 | 34926 ft | 495 kts | 105° |
| 2026-05-04 18:18 | 40.18074 | -76.54851 | 34924 ft | 494 kts | 105° |
| 2026-05-04 18:18 | 40.16059 | -76.46297 | 34927 ft | 494 kts | 105° |
| 2026-05-04 18:19 | 40.13008 | -76.33433 | 34921 ft | 494 kts | 105° |
| 2026-05-04 18:19 | 40.11660 | -76.24792 | 34919 ft | 489 kts | 92° |
| 2026-05-04 18:20 | 40.11087 | -76.15938 | 34931 ft | 489 kts | 92° |
| 2026-05-04 18:20 | 40.10480 | -76.07103 | 34940 ft | 489 kts | 92° |
| 2026-05-04 18:21 | 40.09856 | -75.98245 | 34955 ft | 489 kts | 92° |
| 2026-05-04 18:21 | 40.09244 | -75.89463 | 34956 ft | 489 kts | 92° |
| 2026-05-04 18:22 | 40.08618 | -75.80619 | 34947 ft | 490 kts | 92° |
| 2026-05-04 18:22 | 40.08053 | -75.71756 | 34969 ft | 489 kts | 91° |
| 2026-05-04 18:23 | 40.07649 | -75.62958 | 34969 ft | 489 kts | 90° |
| 2026-05-04 18:23 | 40.07243 | -75.54242 | 34977 ft | 489 kts | 90° |
| 2026-05-04 18:24 | 40.06824 | -75.45385 | 34978 ft | 489 kts | 91° |
| 2026-05-04 18:24 | 40.06387 | -75.36519 | 34960 ft | 490 kts | 91° |
| 2026-05-04 18:25 | 40.05936 | -75.27678 | 34955 ft | 490 kts | 91° |
| 2026-05-04 18:25 | 40.04505 | -75.19008 | 34948 ft | 496 kts | 115° |
| 2026-05-04 18:26 | 40.02600 | -75.15249 | 34962 ft | 497 kts | 132° |
| 2026-05-04 18:26 | 40.00111 | -75.12231 | 34983 ft | 496 kts | 141° |
| 2026-05-04 18:26 | 39.97770 | -75.08934 | 34961 ft | 497 kts | 125° |
| 2026-05-04 18:26 | 39.96163 | -75.04964 | 34959 ft | 495 kts | 109° |
| 2026-05-04 18:27 | 39.95186 | -75.00708 | 34800 ft | 490 kts | 105° |
| 2026-05-04 18:27 | 39.94177 | -74.96513 | 34361 ft | 483 kts | 106° |
| 2026-05-04 18:27 | 39.93115 | -74.92357 | 33731 ft | 481 kts | 107° |
| 2026-05-04 18:27 | 39.92040 | -74.88250 | 33063 ft | 478 kts | 107° |
| 2026-05-04 18:28 | 39.90967 | -74.84171 | 32449 ft | 475 kts | 107° |
| 2026-05-04 18:28 | 39.89918 | -74.80174 | 31815 ft | 470 kts | 107° |
| 2026-05-04 18:28 | 39.88868 | -74.76164 | 30837 ft | 468 kts | 107° |
| 2026-05-04 18:28 | 39.87823 | -74.72156 | 29733 ft | 470 kts | 107° |
| 2026-05-04 18:29 | 39.86783 | -74.68156 | 28716 ft | 466 kts | 107° |
| 2026-05-04 18:29 | 39.85748 | -74.64153 | 27797 ft | 460 kts | 107° |
| 2026-05-04 18:29 | 39.84761 | -74.60317 | 26950 ft | 454 kts | 107° |
| 2026-05-04 18:29 | 39.84001 | -74.56377 | 26104 ft | 445 kts | 94° |
| 2026-05-04 18:30 | 39.84569 | -74.48711 | 24508 ft | 425 kts | 71° |
| 2026-05-04 18:30 | 39.85387 | -74.45102 | 23630 ft | 422 kts | 69° |
| 2026-05-04 18:30 | 39.86289 | -74.41447 | 22301 ft | 426 kts | 68° |
| 2026-05-04 18:31 | 39.87231 | -74.37773 | 21106 ft | 428 kts | 68° |
| 2026-05-04 18:31 | 39.88188 | -74.34122 | 20120 ft | 424 kts | 68° |
| 2026-05-04 18:31 | 39.89151 | -74.30511 | 19215 ft | 419 kts | 66° |
| 2026-05-04 18:31 | 39.90472 | -74.27201 | 18321 ft | 408 kts | 50° |
| 2026-05-04 18:32 | 39.92382 | -74.24561 | 17335 ft | 396 kts | 34° |
| 2026-05-04 18:32 | 39.94595 | -74.22480 | 16394 ft | 389 kts | 29° |
| 2026-05-04 18:32 | 39.96825 | -74.20605 | 15501 ft | 384 kts | 26° |
| 2026-05-04 18:32 | 39.99239 | -74.19297 | 14601 ft | 371 kts | 8° |
| 2026-05-04 18:33 | 40.01750 | -74.19068 | 13740 ft | 357 kts | 348° |
| 2026-05-04 18:33 | 40.04118 | -74.19831 | 12830 ft | 347 kts | 335° |
| 2026-05-04 18:33 | 40.06213 | -74.21291 | 12224 ft | 338 kts | 320° |
| 2026-05-04 18:33 | 40.07854 | -74.23412 | 11691 ft | 329 kts | 304° |
| 2026-05-04 18:34 | 40.08941 | -74.26008 | 11131 ft | 324 kts | 289° |
| 2026-05-04 18:34 | 40.09467 | -74.28852 | 10598 ft | 322 kts | 278° |
| 2026-05-04 18:34 | 40.09474 | -74.31753 | 10058 ft | 321 kts | 263° |
| 2026-05-04 18:34 | 40.08913 | -74.34533 | 9494 ft | 321 kts | 253° |
| 2026-05-04 18:35 | 40.08187 | -74.37278 | 8955 ft | 319 kts | 252° |
| 2026-05-04 18:35 | 40.07470 | -74.39969 | 8666 ft | 306 kts | 252° |
| 2026-05-04 18:35 | 40.06804 | -74.42502 | 8466 ft | 285 kts | 253° |
| 2026-05-04 18:35 | 40.06188 | -74.44867 | 8298 ft | 266 kts | 253° |
| 2026-05-04 18:36 | 40.05609 | -74.47105 | 8206 ft | 260 kts | 253° |
| 2026-05-04 18:36 | 40.05031 | -74.49345 | 8214 ft | 261 kts | 253° |
| 2026-05-04 18:36 | 40.04452 | -74.51590 | 8094 ft | 261 kts | 253° |
| 2026-05-04 18:36 | 40.03886 | -74.53784 | 7896 ft | 259 kts | 253° |
| 2026-05-04 18:37 | 40.03320 | -74.55967 | 7649 ft | 257 kts | 253° |
| 2026-05-04 18:37 | 40.02749 | -74.58173 | 7362 ft | 257 kts | 253° |
| 2026-05-04 18:37 | 40.02176 | -74.60386 | 7049 ft | 258 kts | 253° |
| 2026-05-04 18:37 | 40.01600 | -74.62603 | 6772 ft | 258 kts | 253° |
| 2026-05-04 18:38 | 40.01029 | -74.64800 | 6463 ft | 255 kts | 253° |
| 2026-05-04 18:38 | 40.00466 | -74.66967 | 6143 ft | 253 kts | 253° |
| 2026-05-04 18:38 | 39.99899 | -74.69143 | 5795 ft | 255 kts | 252° |
| 2026-05-04 18:38 | 39.99329 | -74.71335 | 5496 ft | 255 kts | 251° |
| 2026-05-04 18:39 | 39.98761 | -74.73518 | 5256 ft | 253 kts | 251° |
| 2026-05-04 18:39 | 39.98205 | -74.75656 | 4936 ft | 253 kts | 251° |
| 2026-05-04 18:39 | 39.97637 | -74.77827 | 4636 ft | 252 kts | 250° |
| 2026-05-04 18:39 | 39.97074 | -74.79991 | 4303 ft | 252 kts | 250° |
| 2026-05-04 18:40 | 39.96511 | -74.82139 | 4005 ft | 250 kts | 251° |
| 2026-05-04 18:40 | 39.95949 | -74.84273 | 3716 ft | 248 kts | 248° |
| 2026-05-04 18:40 | 39.95271 | -74.86308 | 3545 ft | 240 kts | 244° |
| 2026-05-04 18:40 | 39.94598 | -74.88292 | 3154 ft | 244 kts | 246° |
| 2026-05-04 18:41 | 39.93977 | -74.90350 | 2819 ft | 244 kts | 249° |
| 2026-05-04 18:41 | 39.93419 | -74.92409 | 2657 ft | 244 kts | 249° |
| 2026-05-04 18:41 | 39.92850 | -74.94440 | 2562 ft | 234 kts | 250° |
| 2026-05-04 18:41 | 39.92452 | -74.96462 | 2560 ft | 226 kts | 258° |
| 2026-05-04 18:42 | 39.92305 | -74.98450 | 2536 ft | 217 kts | 261° |
| 2026-05-04 18:42 | 39.91976 | -75.00350 | 2556 ft | 213 kts | 248° |
| 2026-05-04 18:42 | 39.91508 | -75.02158 | 2545 ft | 208 kts | 252° |
| 2026-05-04 18:42 | 39.91205 | -75.03923 | 2383 ft | 192 kts | 256° |
| 2026-05-04 18:43 | 39.90899 | -75.05581 | 2464 ft | 191 kts | 253° |
| 2026-05-04 18:43 | 39.90547 | -75.07271 | 2372 ft | 191 kts | 251° |
| 2026-05-04 18:43 | 39.90196 | -75.08897 | 2159 ft | 187 kts | 252° |
| 2026-05-04 18:43 | 39.89871 | -75.10469 | 2015 ft | 168 kts | 253° |
| 2026-05-04 18:44 | 39.89592 | -75.11895 | 1824 ft | 160 kts | 252° |
| 2026-05-04 18:44 | 39.89409 | -75.12812 | 1708 ft | 156 kts | 252° |
| 2026-05-04 18:44 | 39.89078 | -75.14586 | 1358 ft | 148 kts | 253° |
| 2026-05-04 18:44 | 39.88827 | -75.15823 | 1237 ft | 130 kts | 251° |
| 2026-05-04 18:45 | 39.88587 | -75.16926 | 932 ft | 123 kts | 251° |
| 2026-05-04 18:45 | 39.88399 | -75.18001 | 737 ft | 122 kts | 252° |
| 2026-05-04 18:45 | 39.88171 | -75.19061 | 541 ft | 123 kts | 249° |
| 2026-05-04 18:45 | 39.87938 | -75.20157 | 407 ft | 127 kts | 254° |
| 2026-05-04 18:46 | 39.87725 | -75.21283 | 254 ft | 125 kts | 253° |
| 2026-05-04 18:46 | 39.87510 | -75.22355 | 72 ft | 123 kts | 253° |
| 2026-05-04 18:46 | 39.87305 | -75.23379 | 31 ft | 107 kts | 255° |
| 2026-05-04 18:46 | 39.87192 | -75.23942 | 31 ft | 22 kts | 255° |
| 2026-05-04 18:47 | 39.87190 | -75.24122 | 31 ft | 22 kts | 313° |
| 2026-05-04 18:47 | 39.87260 | -75.24169 | 31 ft | 11 kts | 335° |
| 2026-05-04 18:47 | 39.87332 | -75.24171 | 31 ft | 13 kts | 57° |
| 2026-05-04 18:47 | 39.87358 | -75.24048 | 31 ft | 15 kts | 77° |
| 2026-05-04 18:48 | 39.87381 | -75.23941 | 31 ft | 10 kts | 71° |
| 2026-05-04 18:48 | 39.87429 | -75.23912 | 31 ft | 6 kts | 301° |
| 2026-05-04 18:48 | 39.87450 | -75.23969 | 31 ft | 8 kts | 297° |
| 2026-05-04 18:48 | 39.87458 | -75.23989 | 31 ft | 0 kts | 294° |